ITY337 LFML-LIRF
Flight info
| Callsign | ITY337 |
|---|---|
| Flight time | 0h 54m |
| Altitude | 27000 |
| Route | NASIK P856 RAPED DCT RAPUR DCT RATAP DCT BTA DCT MOULE DCT XOPTA DCT ELB DCT ELKAP |
| Aircraft | A319/M-SDE3FGHIRWY/LB1 |
Departure
| Time | 2026-05-07 07:08 |
|---|---|
| Airport | Marseille Provence Airport (LFML) |
Arrival
| Time | 2026-05-07 08:02 |
|---|---|
| Airport | Rome–Fiumicino Leonardo da Vinci International Airport (LIRF) |
| Time | Latitude | Longitude | Altitude | Speed | Heading |
|---|---|---|---|---|---|
| 2026-05-07 06:48 | 43.44018 | 5.22160 | 38 ft | 0 kts | 33° |
| 2026-05-07 06:57 | 43.44017 | 5.22160 | 38 ft | 0 kts | 33° |
| 2026-05-07 07:02 | 43.44017 | 5.22159 | 37 ft | 2 kts | 33° |
| 2026-05-07 07:02 | 43.43996 | 5.22140 | 35 ft | 4 kts | 37° |
| 2026-05-07 07:02 | 43.43975 | 5.22116 | 34 ft | 4 kts | 48° |
| 2026-05-07 07:02 | 43.43962 | 5.22087 | 36 ft | 4 kts | 98° |
| 2026-05-07 07:03 | 43.43964 | 5.22075 | 37 ft | 0 kts | 134° |
| 2026-05-07 07:04 | 43.43958 | 5.22084 | 37 ft | 4 kts | 134° |
| 2026-05-07 07:04 | 43.43926 | 5.22129 | 36 ft | 9 kts | 134° |
| 2026-05-07 07:05 | 43.43888 | 5.22176 | 37 ft | 13 kts | 143° |
| 2026-05-07 07:05 | 43.43790 | 5.22231 | 36 ft | 16 kts | 173° |
| 2026-05-07 07:05 | 43.43666 | 5.22113 | 37 ft | 17 kts | 199° |
| 2026-05-07 07:05 | 43.43565 | 5.22169 | 37 ft | 17 kts | 151° |
| 2026-05-07 07:06 | 43.43492 | 5.22227 | 37 ft | 19 kts | 149° |
| 2026-05-07 07:06 | 43.43372 | 5.22298 | 37 ft | 19 kts | 163° |
| 2026-05-07 07:06 | 43.43268 | 5.22416 | 36 ft | 20 kts | 134° |
| 2026-05-07 07:06 | 43.43150 | 5.22499 | 37 ft | 19 kts | 184° |
| 2026-05-07 07:07 | 43.43058 | 5.22391 | 37 ft | 19 kts | 281° |
| 2026-05-07 07:07 | 43.43180 | 5.22204 | 37 ft | 50 kts | 314° |
| 2026-05-07 07:07 | 43.43614 | 5.21585 | 36 ft | 125 kts | 314° |
| 2026-05-07 07:07 | 43.44343 | 5.20537 | 211 ft | 164 kts | 313° |
| 2026-05-07 07:08 | 43.45133 | 5.19431 | 1004 ft | 160 kts | 315° |
| 2026-05-07 07:08 | 43.45905 | 5.18381 | 1807 ft | 157 kts | 316° |
| 2026-05-07 07:08 | 43.46721 | 5.17266 | 2306 ft | 175 kts | 315° |
| 2026-05-07 07:08 | 43.47641 | 5.15999 | 2729 ft | 198 kts | 314° |
| 2026-05-07 07:09 | 43.48679 | 5.14571 | 3131 ft | 223 kts | 314° |
| 2026-05-07 07:09 | 43.49836 | 5.12968 | 3688 ft | 248 kts | 314° |
| 2026-05-07 07:09 | 43.51083 | 5.11244 | 4668 ft | 258 kts | 314° |
| 2026-05-07 07:09 | 43.52430 | 5.09621 | 5663 ft | 264 kts | 327° |
| 2026-05-07 07:10 | 43.54187 | 5.08846 | 6782 ft | 269 kts | 353° |
| 2026-05-07 07:10 | 43.56052 | 5.09148 | 7857 ft | 275 kts | 17° |
| 2026-05-07 07:10 | 43.57710 | 5.10534 | 8854 ft | 284 kts | 43° |
| 2026-05-07 07:10 | 43.58796 | 5.12827 | 9812 ft | 291 kts | 70° |
| 2026-05-07 07:11 | 43.59046 | 5.15593 | 10654 ft | 297 kts | 97° |
| 2026-05-07 07:11 | 43.58371 | 5.18315 | 11254 ft | 309 kts | 121° |
| 2026-05-07 07:11 | 43.57324 | 5.20881 | 12145 ft | 310 kts | 121° |
| 2026-05-07 07:11 | 43.56248 | 5.23472 | 13105 ft | 312 kts | 121° |
| 2026-05-07 07:12 | 43.55154 | 5.26096 | 13902 ft | 321 kts | 121° |
| 2026-05-07 07:12 | 43.54003 | 5.28861 | 14143 ft | 344 kts | 121° |
| 2026-05-07 07:12 | 43.52786 | 5.31796 | 14569 ft | 358 kts | 121° |
| 2026-05-07 07:12 | 43.51558 | 5.34766 | 15230 ft | 364 kts | 120° |
| 2026-05-07 07:13 | 43.50443 | 5.37918 | 15922 ft | 369 kts | 111° |
| 2026-05-07 07:13 | 43.49586 | 5.41279 | 16648 ft | 373 kts | 110° |
| 2026-05-07 07:13 | 43.48717 | 5.44672 | 17363 ft | 377 kts | 110° |
| 2026-05-07 07:13 | 43.47831 | 5.48103 | 18073 ft | 382 kts | 110° |
| 2026-05-07 07:14 | 43.46930 | 5.51571 | 18728 ft | 386 kts | 110° |
| 2026-05-07 07:14 | 43.46020 | 5.55071 | 19321 ft | 391 kts | 110° |
| 2026-05-07 07:14 | 43.45097 | 5.58623 | 19928 ft | 396 kts | 110° |
| 2026-05-07 07:14 | 43.44160 | 5.62209 | 20523 ft | 400 kts | 110° |
| 2026-05-07 07:15 | 43.43218 | 5.65792 | 21103 ft | 405 kts | 111° |
| 2026-05-07 07:15 | 43.42261 | 5.69465 | 21689 ft | 410 kts | 109° |
| 2026-05-07 07:15 | 43.41611 | 5.73312 | 22258 ft | 416 kts | 98° |
| 2026-05-07 07:15 | 43.41451 | 5.77309 | 22838 ft | 420 kts | 88° |
| 2026-05-07 07:16 | 43.41601 | 5.81358 | 23399 ft | 425 kts | 86° |
| 2026-05-07 07:16 | 43.41750 | 5.85439 | 23867 ft | 430 kts | 87° |
| 2026-05-07 07:16 | 43.41891 | 5.89515 | 24306 ft | 434 kts | 87° |
| 2026-05-07 07:16 | 43.42029 | 5.93693 | 24744 ft | 438 kts | 87° |
| 2026-05-07 07:17 | 43.42167 | 5.97909 | 25179 ft | 442 kts | 87° |
| 2026-05-07 07:17 | 43.42304 | 6.02157 | 25611 ft | 447 kts | 87° |
| 2026-05-07 07:17 | 43.42443 | 6.06454 | 26038 ft | 451 kts | 88° |
| 2026-05-07 07:17 | 43.42582 | 6.10786 | 26453 ft | 455 kts | 88° |
| 2026-05-07 07:18 | 43.42719 | 6.15104 | 26848 ft | 459 kts | 88° |
| 2026-05-07 07:18 | 43.42858 | 6.19499 | 26976 ft | 457 kts | 88° |
| 2026-05-07 07:18 | 43.42995 | 6.23814 | 27004 ft | 446 kts | 88° |
| 2026-05-07 07:18 | 43.42967 | 6.28056 | 27005 ft | 442 kts | 96° |
| 2026-05-07 07:19 | 43.42603 | 6.32250 | 26998 ft | 441 kts | 98° |
| 2026-05-07 07:19 | 43.42220 | 6.36450 | 27006 ft | 441 kts | 98° |
| 2026-05-07 07:19 | 43.41838 | 6.40634 | 26999 ft | 441 kts | 98° |
| 2026-05-07 07:19 | 43.41465 | 6.44761 | 26997 ft | 441 kts | 98° |
| 2026-05-07 07:20 | 43.41088 | 6.48959 | 27007 ft | 441 kts | 98° |
| 2026-05-07 07:20 | 43.40709 | 6.53147 | 27003 ft | 441 kts | 98° |
| 2026-05-07 07:20 | 43.40327 | 6.57332 | 26992 ft | 440 kts | 98° |
| 2026-05-07 07:20 | 43.39942 | 6.61517 | 26987 ft | 440 kts | 99° |
| 2026-05-07 07:21 | 43.39560 | 6.65644 | 26981 ft | 440 kts | 99° |
| 2026-05-07 07:21 | 43.39169 | 6.69818 | 26973 ft | 440 kts | 99° |
| 2026-05-07 07:21 | 43.38778 | 6.73993 | 26953 ft | 441 kts | 99° |
| 2026-05-07 07:21 | 43.38383 | 6.78180 | 26952 ft | 441 kts | 99° |
| 2026-05-07 07:22 | 43.37986 | 6.82358 | 26955 ft | 441 kts | 99° |
| 2026-05-07 07:22 | 43.37587 | 6.86539 | 26957 ft | 441 kts | 99° |
| 2026-05-07 07:22 | 43.36956 | 6.90653 | 26951 ft | 438 kts | 109° |
| 2026-05-07 07:22 | 43.35962 | 6.94596 | 26948 ft | 437 kts | 113° |
| 2026-05-07 07:23 | 43.34929 | 6.98541 | 26952 ft | 437 kts | 113° |
| 2026-05-07 07:23 | 43.33916 | 7.02428 | 26954 ft | 437 kts | 113° |
| 2026-05-07 07:23 | 43.32891 | 7.06369 | 26955 ft | 437 kts | 113° |
| 2026-05-07 07:23 | 43.31866 | 7.10305 | 26962 ft | 437 kts | 113° |
| 2026-05-07 07:24 | 43.30839 | 7.14241 | 26958 ft | 437 kts | 113° |
| 2026-05-07 07:24 | 43.29825 | 7.18119 | 26965 ft | 437 kts | 113° |
| 2026-05-07 07:24 | 43.28794 | 7.22052 | 26966 ft | 436 kts | 113° |
| 2026-05-07 07:24 | 43.27759 | 7.25985 | 26968 ft | 436 kts | 113° |
| 2026-05-07 07:25 | 43.25706 | 7.33779 | 26966 ft | 436 kts | 113° |
| 2026-05-07 07:25 | 43.24670 | 7.37698 | 26967 ft | 436 kts | 113° |
| 2026-05-07 07:25 | 43.23633 | 7.41618 | 26970 ft | 436 kts | 114° |
| 2026-05-07 07:26 | 43.22595 | 7.45533 | 26969 ft | 436 kts | 114° |
| 2026-05-07 07:26 | 43.21556 | 7.49436 | 26971 ft | 436 kts | 114° |
| 2026-05-07 07:26 | 43.20512 | 7.53346 | 26972 ft | 436 kts | 114° |
| 2026-05-07 07:26 | 43.19470 | 7.57250 | 26971 ft | 436 kts | 114° |
| 2026-05-07 07:27 | 43.18442 | 7.61099 | 26971 ft | 436 kts | 114° |
| 2026-05-07 07:27 | 43.17399 | 7.64999 | 26971 ft | 436 kts | 114° |
| 2026-05-07 07:27 | 43.16353 | 7.68902 | 26969 ft | 436 kts | 114° |
| 2026-05-07 07:27 | 43.15303 | 7.72815 | 26968 ft | 436 kts | 114° |
| 2026-05-07 07:28 | 43.14256 | 7.76710 | 26968 ft | 436 kts | 114° |
| 2026-05-07 07:28 | 43.13209 | 7.80610 | 26971 ft | 436 kts | 114° |
| 2026-05-07 07:28 | 43.12171 | 7.84466 | 26973 ft | 436 kts | 114° |
| 2026-05-07 07:28 | 43.11121 | 7.88367 | 26971 ft | 436 kts | 114° |
| 2026-05-07 07:29 | 43.10069 | 7.92262 | 26973 ft | 436 kts | 115° |
| 2026-05-07 07:29 | 43.09015 | 7.96156 | 26970 ft | 436 kts | 115° |
| 2026-05-07 07:29 | 43.07957 | 8.00044 | 26974 ft | 436 kts | 115° |
| 2026-05-07 07:29 | 43.06912 | 8.03883 | 26974 ft | 436 kts | 115° |
| 2026-05-07 07:30 | 43.05852 | 8.07776 | 26978 ft | 436 kts | 115° |
| 2026-05-07 07:30 | 43.04791 | 8.11666 | 26976 ft | 436 kts | 115° |
| 2026-05-07 07:30 | 43.03725 | 8.15560 | 26975 ft | 436 kts | 115° |
| 2026-05-07 07:30 | 43.02658 | 8.19455 | 26976 ft | 436 kts | 115° |
| 2026-05-07 07:31 | 43.01591 | 8.23341 | 26983 ft | 437 kts | 115° |
| 2026-05-07 07:31 | 43.00525 | 8.27230 | 26985 ft | 438 kts | 115° |
| 2026-05-07 07:31 | 42.99431 | 8.31195 | 27001 ft | 454 kts | 115° |
| 2026-05-07 07:31 | 42.98311 | 8.35245 | 26997 ft | 468 kts | 115° |
| 2026-05-07 07:32 | 42.97142 | 8.39473 | 27002 ft | 481 kts | 115° |
| 2026-05-07 07:32 | 42.95945 | 8.43807 | 27001 ft | 492 kts | 115° |
| 2026-05-07 07:32 | 42.94729 | 8.48222 | 27004 ft | 497 kts | 115° |
| 2026-05-07 07:32 | 42.93504 | 8.52669 | 27002 ft | 504 kts | 115° |
| 2026-05-07 07:33 | 42.92252 | 8.57185 | 27002 ft | 512 kts | 115° |
| 2026-05-07 07:33 | 42.90997 | 8.61689 | 27002 ft | 515 kts | 115° |
| 2026-05-07 07:33 | 42.89718 | 8.66263 | 27000 ft | 516 kts | 116° |
| 2026-05-07 07:33 | 42.88162 | 8.70643 | 27005 ft | 511 kts | 123° |
| 2026-05-07 07:34 | 42.86470 | 8.74916 | 27006 ft | 511 kts | 123° |
| 2026-05-07 07:34 | 42.84777 | 8.79183 | 27009 ft | 511 kts | 123° |
| 2026-05-07 07:34 | 42.83087 | 8.83442 | 27011 ft | 511 kts | 123° |
| 2026-05-07 07:34 | 42.81396 | 8.87696 | 27011 ft | 510 kts | 123° |
| 2026-05-07 07:35 | 42.79724 | 8.91896 | 27008 ft | 511 kts | 123° |
| 2026-05-07 07:35 | 42.78026 | 8.96156 | 27007 ft | 511 kts | 123° |
| 2026-05-07 07:35 | 42.76328 | 9.00403 | 27008 ft | 510 kts | 123° |
| 2026-05-07 07:35 | 42.74626 | 9.04653 | 27006 ft | 510 kts | 123° |
| 2026-05-07 07:36 | 42.72925 | 9.08895 | 27004 ft | 510 kts | 124° |
| 2026-05-07 07:36 | 42.71224 | 9.13133 | 27004 ft | 510 kts | 124° |
| 2026-05-07 07:36 | 42.69518 | 9.17378 | 27014 ft | 510 kts | 124° |
| 2026-05-07 07:36 | 42.67839 | 9.21552 | 27006 ft | 510 kts | 124° |
| 2026-05-07 07:37 | 42.66128 | 9.25798 | 27007 ft | 511 kts | 124° |
| 2026-05-07 07:37 | 42.64421 | 9.30028 | 27008 ft | 511 kts | 124° |
| 2026-05-07 07:37 | 42.62713 | 9.34258 | 27012 ft | 511 kts | 124° |
| 2026-05-07 07:37 | 42.60999 | 9.38496 | 27017 ft | 510 kts | 124° |
| 2026-05-07 07:38 | 42.59436 | 9.42855 | 27011 ft | 517 kts | 115° |
| 2026-05-07 07:38 | 42.58541 | 9.47539 | 27016 ft | 525 kts | 102° |
| 2026-05-07 07:38 | 42.58421 | 9.52515 | 27020 ft | 531 kts | 87° |
| 2026-05-07 07:38 | 42.59087 | 9.57461 | 27025 ft | 534 kts | 78° |
| 2026-05-07 07:39 | 42.59957 | 9.62363 | 27025 ft | 534 kts | 78° |
| 2026-05-07 07:39 | 42.60819 | 9.67268 | 27022 ft | 534 kts | 78° |
| 2026-05-07 07:39 | 42.61668 | 9.72175 | 27020 ft | 534 kts | 78° |
| 2026-05-07 07:39 | 42.62511 | 9.77098 | 27021 ft | 534 kts | 78° |
| 2026-05-07 07:40 | 42.63350 | 9.82021 | 27021 ft | 534 kts | 78° |
| 2026-05-07 07:40 | 42.64177 | 9.86877 | 27018 ft | 534 kts | 78° |
| 2026-05-07 07:40 | 42.65017 | 9.91792 | 27020 ft | 534 kts | 78° |
| 2026-05-07 07:40 | 42.65859 | 9.96717 | 27024 ft | 534 kts | 78° |
| 2026-05-07 07:41 | 42.66698 | 10.01625 | 27022 ft | 534 kts | 78° |
| 2026-05-07 07:41 | 42.67535 | 10.06547 | 27021 ft | 534 kts | 79° |
| 2026-05-07 07:41 | 42.68368 | 10.11476 | 27020 ft | 534 kts | 79° |
| 2026-05-07 07:41 | 42.69197 | 10.16404 | 27032 ft | 534 kts | 79° |
| 2026-05-07 07:42 | 42.70015 | 10.21267 | 27034 ft | 533 kts | 79° |
| 2026-05-07 07:42 | 42.70846 | 10.26195 | 27027 ft | 533 kts | 79° |
| 2026-05-07 07:42 | 42.71672 | 10.31123 | 27038 ft | 533 kts | 79° |
| 2026-05-07 07:42 | 42.72486 | 10.36029 | 27017 ft | 524 kts | 80° |
| 2026-05-07 07:43 | 42.72934 | 10.40884 | 27021 ft | 513 kts | 91° |
| 2026-05-07 07:43 | 42.72836 | 10.45642 | 27025 ft | 508 kts | 97° |
| 2026-05-07 07:43 | 42.72646 | 10.50454 | 27034 ft | 508 kts | 96° |
| 2026-05-07 07:43 | 42.72458 | 10.55253 | 26757 ft | 508 kts | 96° |
| 2026-05-07 07:44 | 42.72206 | 10.60054 | 26472 ft | 505 kts | 102° |
| 2026-05-07 07:44 | 42.71435 | 10.64682 | 25924 ft | 497 kts | 113° |
| 2026-05-07 07:44 | 42.70055 | 10.68884 | 25397 ft | 488 kts | 125° |
| 2026-05-07 07:44 | 42.68268 | 10.72795 | 24876 ft | 487 kts | 128° |
| 2026-05-07 07:45 | 42.66463 | 10.76699 | 24346 ft | 488 kts | 127° |
| 2026-05-07 07:45 | 42.64660 | 10.80622 | 23804 ft | 495 kts | 127° |
| 2026-05-07 07:45 | 42.62826 | 10.84623 | 23175 ft | 498 kts | 127° |
| 2026-05-07 07:45 | 42.61004 | 10.88611 | 22622 ft | 494 kts | 126° |
| 2026-05-07 07:46 | 42.59203 | 10.92549 | 21956 ft | 487 kts | 126° |
| 2026-05-07 07:46 | 42.57449 | 10.96374 | 21261 ft | 481 kts | 126° |
| 2026-05-07 07:46 | 42.55677 | 11.00217 | 20926 ft | 480 kts | 126° |
| 2026-05-07 07:46 | 42.53911 | 11.04036 | 20319 ft | 477 kts | 126° |
| 2026-05-07 07:47 | 42.52155 | 11.07829 | 19670 ft | 469 kts | 126° |
| 2026-05-07 07:47 | 42.50443 | 11.11529 | 18963 ft | 461 kts | 126° |
| 2026-05-07 07:47 | 42.48736 | 11.15198 | 18606 ft | 460 kts | 126° |
| 2026-05-07 07:47 | 42.47023 | 11.18861 | 18005 ft | 460 kts | 126° |
| 2026-05-07 07:48 | 42.45317 | 11.22510 | 17736 ft | 456 kts | 126° |
| 2026-05-07 07:48 | 42.43621 | 11.26150 | 17599 ft | 456 kts | 126° |
| 2026-05-07 07:48 | 42.41932 | 11.29781 | 16808 ft | 454 kts | 126° |
| 2026-05-07 07:48 | 42.40269 | 11.33360 | 16175 ft | 444 kts | 126° |
| 2026-05-07 07:49 | 42.38659 | 11.36820 | 15560 ft | 435 kts | 126° |
| 2026-05-07 07:49 | 42.37041 | 11.40281 | 14831 ft | 435 kts | 126° |
| 2026-05-07 07:49 | 42.35417 | 11.43733 | 14198 ft | 432 kts | 126° |
| 2026-05-07 07:49 | 42.33812 | 11.47147 | 13644 ft | 425 kts | 126° |
| 2026-05-07 07:50 | 42.32259 | 11.50458 | 12972 ft | 421 kts | 125° |
| 2026-05-07 07:50 | 42.30705 | 11.53775 | 12368 ft | 414 kts | 125° |
| 2026-05-07 07:50 | 42.29170 | 11.57045 | 11723 ft | 408 kts | 125° |
| 2026-05-07 07:50 | 42.27647 | 11.60278 | 11069 ft | 406 kts | 125° |
| 2026-05-07 07:51 | 42.26156 | 11.63432 | 10865 ft | 387 kts | 125° |
| 2026-05-07 07:51 | 42.24761 | 11.66380 | 10741 ft | 367 kts | 125° |
| 2026-05-07 07:51 | 42.23419 | 11.69219 | 10620 ft | 350 kts | 125° |
| 2026-05-07 07:51 | 42.22136 | 11.71933 | 10500 ft | 335 kts | 125° |
| 2026-05-07 07:52 | 42.21077 | 11.74647 | 10379 ft | 319 kts | 115° |
| 2026-05-07 07:52 | 42.20244 | 11.77341 | 10257 ft | 302 kts | 115° |
| 2026-05-07 07:52 | 42.19446 | 11.79892 | 10067 ft | 290 kts | 115° |
| 2026-05-07 07:52 | 42.18666 | 11.82370 | 9673 ft | 285 kts | 115° |
| 2026-05-07 07:53 | 42.18152 | 11.83997 | 9391 ft | 283 kts | 115° |
| 2026-05-07 07:53 | 42.17383 | 11.86434 | 8949 ft | 280 kts | 115° |
| 2026-05-07 07:53 | 42.16377 | 11.89616 | 8387 ft | 277 kts | 115° |
| 2026-05-07 07:53 | 42.15628 | 11.91992 | 7944 ft | 274 kts | 115° |
| 2026-05-07 07:54 | 42.15126 | 11.93584 | 7629 ft | 272 kts | 114° |
| 2026-05-07 07:54 | 42.14399 | 11.95892 | 7156 ft | 269 kts | 114° |
| 2026-05-07 07:54 | 42.13667 | 11.98216 | 6702 ft | 267 kts | 114° |
| 2026-05-07 07:54 | 42.12942 | 12.00515 | 6242 ft | 264 kts | 114° |
| 2026-05-07 07:55 | 42.12227 | 12.02786 | 5785 ft | 262 kts | 115° |
| 2026-05-07 07:55 | 42.11278 | 12.04853 | 5360 ft | 258 kts | 133° |
| 2026-05-07 07:55 | 42.10061 | 12.06616 | 4931 ft | 256 kts | 134° |
| 2026-05-07 07:55 | 42.08872 | 12.08344 | 4498 ft | 254 kts | 134° |
| 2026-05-07 07:56 | 42.07684 | 12.10085 | 4128 ft | 251 kts | 134° |
| 2026-05-07 07:56 | 42.06509 | 12.11809 | 3779 ft | 248 kts | 134° |
| 2026-05-07 07:56 | 42.05325 | 12.13547 | 3217 ft | 254 kts | 133° |
| 2026-05-07 07:56 | 42.04156 | 12.15265 | 3061 ft | 242 kts | 133° |
| 2026-05-07 07:57 | 42.03059 | 12.16877 | 3059 ft | 225 kts | 133° |
| 2026-05-07 07:57 | 42.02311 | 12.17974 | 3067 ft | 213 kts | 134° |
| 2026-05-07 07:57 | 42.01235 | 12.19102 | 3067 ft | 206 kts | 156° |
| 2026-05-07 07:57 | 41.99892 | 12.19723 | 3067 ft | 204 kts | 163° |
| 2026-05-07 07:58 | 41.98535 | 12.20294 | 2908 ft | 204 kts | 163° |
| 2026-05-07 07:58 | 41.97193 | 12.20860 | 2704 ft | 199 kts | 163° |
| 2026-05-07 07:58 | 41.95876 | 12.21413 | 2418 ft | 198 kts | 163° |
| 2026-05-07 07:58 | 41.94566 | 12.21964 | 2145 ft | 194 kts | 163° |
| 2026-05-07 07:59 | 41.93313 | 12.22491 | 1887 ft | 183 kts | 163° |
| 2026-05-07 07:59 | 41.92145 | 12.22982 | 1654 ft | 169 kts | 163° |
| 2026-05-07 07:59 | 41.91062 | 12.23437 | 1438 ft | 158 kts | 163° |
| 2026-05-07 07:59 | 41.90036 | 12.23867 | 1227 ft | 151 kts | 163° |
| 2026-05-07 08:00 | 41.89066 | 12.24271 | 976 ft | 146 kts | 163° |
| 2026-05-07 08:00 | 41.88118 | 12.24677 | 796 ft | 141 kts | 161° |
| 2026-05-07 08:00 | 41.87192 | 12.25064 | 602 ft | 137 kts | 163° |
| 2026-05-07 08:00 | 41.86285 | 12.25440 | 428 ft | 136 kts | 162° |
| 2026-05-07 08:01 | 41.85381 | 12.25817 | 239 ft | 136 kts | 161° |
| 2026-05-07 08:01 | 41.84482 | 12.26200 | 59 ft | 135 kts | 162° |
| 2026-05-07 08:01 | 41.83612 | 12.26565 | 17 ft | 122 kts | 162° |
| 2026-05-07 08:01 | 41.82963 | 12.26837 | 17 ft | 73 kts | 162° |
| 2026-05-07 08:02 | 41.82575 | 12.27001 | 14 ft | 54 kts | 162° |
| 2026-05-07 08:02 | 41.82220 | 12.27138 | 13 ft | 52 kts | 173° |
| 2026-05-07 08:02 | 41.81874 | 12.27082 | 16 ft | 50 kts | 193° |
| 2026-05-07 08:02 | 41.81539 | 12.27106 | 15 ft | 48 kts | 163° |
| 2026-05-07 08:03 | 41.81222 | 12.27242 | 15 ft | 47 kts | 162° |
| 2026-05-07 08:03 | 41.80923 | 12.27354 | 15 ft | 41 kts | 177° |
| 2026-05-07 08:03 | 41.80665 | 12.27229 | 15 ft | 41 kts | 229° |
| 2026-05-07 08:03 | 41.80568 | 12.26906 | 15 ft | 35 kts | 249° |
| 2026-05-07 08:04 | 41.80487 | 12.26606 | 16 ft | 35 kts | 250° |
| 2026-05-07 08:04 | 41.80402 | 12.26302 | 15 ft | 35 kts | 250° |
| 2026-05-07 08:04 | 41.80258 | 12.26060 | 15 ft | 35 kts | 206° |
| 2026-05-07 08:04 | 41.80039 | 12.25925 | 15 ft | 35 kts | 205° |
| 2026-05-07 08:05 | 41.79825 | 12.25791 | 15 ft | 25 kts | 205° |
| 2026-05-07 08:05 | 41.79799 | 12.25704 | 16 ft | 5 kts | 295° |
| 2026-05-07 08:05 | 41.79805 | 12.25685 | 16 ft | 0 kts | 294° |